CPA913 VHHH-RPLL
Flight info
| Callsign | CPA913 |
|---|---|
| Flight time | 1h 31m |
| Altitude | 37000 |
| Route | DALOL V642 NOMAN A461 AVMUP W16 TADEL |
| Aircraft | B77W/H-SDE1E2E3FGHIJ2J3J4J5M1RWXY/LB1D1 |
Departure
| Time | 2026-05-05 10:31 |
|---|---|
| Airport | Hong Kong International Airport (VHHH) |
Arrival
| Time | 2026-05-05 12:03 |
|---|---|
| Airport | Ninoy Aquino International Airport (RPLL) |
| Time | Latitude | Longitude | Altitude | Speed | Heading |
|---|---|---|---|---|---|
| 2026-05-05 09:48 | 22.31298 | 113.92969 | 38 ft | 0 kts | 341° |
| 2026-05-05 10:16 | 22.31290 | 113.92972 | 38 ft | 2 kts | 341° |
| 2026-05-05 10:16 | 22.31276 | 113.92977 | 38 ft | 2 kts | 341° |
| 2026-05-05 10:16 | 22.31262 | 113.92982 | 38 ft | 2 kts | 341° |
| 2026-05-05 10:17 | 22.31253 | 113.92986 | 38 ft | 1 kts | 341° |
| 2026-05-05 10:17 | 22.31239 | 113.92992 | 38 ft | 2 kts | 321° |
| 2026-05-05 10:17 | 22.31229 | 113.93004 | 38 ft | 2 kts | 302° |
| 2026-05-05 10:17 | 22.31222 | 113.93019 | 38 ft | 2 kts | 284° |
| 2026-05-05 10:18 | 22.31220 | 113.93034 | 38 ft | 2 kts | 266° |
| 2026-05-05 10:18 | 22.31223 | 113.93048 | 38 ft | 0 kts | 251° |
| 2026-05-05 10:18 | 22.31224 | 113.93051 | 38 ft | 0 kts | 250° |
| 2026-05-05 10:20 | 22.31219 | 113.93037 | 38 ft | 4 kts | 250° |
| 2026-05-05 10:20 | 22.31202 | 113.92986 | 38 ft | 8 kts | 251° |
| 2026-05-05 10:20 | 22.31181 | 113.92920 | 38 ft | 9 kts | 248° |
| 2026-05-05 10:21 | 22.31133 | 113.92873 | 38 ft | 10 kts | 208° |
| 2026-05-05 10:21 | 22.31069 | 113.92838 | 38 ft | 10 kts | 206° |
| 2026-05-05 10:21 | 22.31002 | 113.92802 | 38 ft | 11 kts | 206° |
| 2026-05-05 10:21 | 22.30929 | 113.92765 | 38 ft | 11 kts | 206° |
| 2026-05-05 10:22 | 22.30865 | 113.92731 | 38 ft | 8 kts | 205° |
| 2026-05-05 10:22 | 22.30828 | 113.92684 | 38 ft | 8 kts | 248° |
| 2026-05-05 10:22 | 22.30805 | 113.92615 | 38 ft | 11 kts | 251° |
| 2026-05-05 10:22 | 22.30777 | 113.92527 | 38 ft | 14 kts | 251° |
| 2026-05-05 10:23 | 22.30740 | 113.92416 | 38 ft | 16 kts | 251° |
| 2026-05-05 10:23 | 22.30704 | 113.92300 | 38 ft | 15 kts | 251° |
| 2026-05-05 10:23 | 22.30668 | 113.92190 | 38 ft | 15 kts | 251° |
| 2026-05-05 10:23 | 22.30635 | 113.92084 | 38 ft | 14 kts | 251° |
| 2026-05-05 10:24 | 22.30601 | 113.91981 | 38 ft | 14 kts | 251° |
| 2026-05-05 10:24 | 22.30566 | 113.91871 | 38 ft | 16 kts | 251° |
| 2026-05-05 10:24 | 22.30529 | 113.91759 | 38 ft | 15 kts | 251° |
| 2026-05-05 10:24 | 22.30495 | 113.91651 | 38 ft | 14 kts | 251° |
| 2026-05-05 10:25 | 22.30461 | 113.91548 | 38 ft | 14 kts | 251° |
| 2026-05-05 10:25 | 22.30426 | 113.91438 | 38 ft | 16 kts | 250° |
| 2026-05-05 10:25 | 22.30389 | 113.91322 | 38 ft | 15 kts | 251° |
| 2026-05-05 10:25 | 22.30353 | 113.91213 | 38 ft | 15 kts | 251° |
| 2026-05-05 10:26 | 22.30319 | 113.91107 | 38 ft | 14 kts | 251° |
| 2026-05-05 10:26 | 22.30287 | 113.91007 | 38 ft | 14 kts | 250° |
| 2026-05-05 10:26 | 22.30256 | 113.90908 | 38 ft | 13 kts | 251° |
| 2026-05-05 10:26 | 22.30225 | 113.90813 | 38 ft | 13 kts | 251° |
| 2026-05-05 10:27 | 22.30194 | 113.90717 | 38 ft | 15 kts | 251° |
| 2026-05-05 10:27 | 22.30154 | 113.90595 | 38 ft | 19 kts | 251° |
| 2026-05-05 10:27 | 22.30105 | 113.90442 | 38 ft | 22 kts | 251° |
| 2026-05-05 10:27 | 22.30050 | 113.90272 | 38 ft | 24 kts | 251° |
| 2026-05-05 10:28 | 22.29996 | 113.90105 | 38 ft | 22 kts | 251° |
| 2026-05-05 10:28 | 22.29945 | 113.89948 | 38 ft | 21 kts | 250° |
| 2026-05-05 10:28 | 22.29900 | 113.89809 | 38 ft | 15 kts | 251° |
| 2026-05-05 10:28 | 22.29872 | 113.89749 | 38 ft | 7 kts | 220° |
| 2026-05-05 10:29 | 22.29822 | 113.89738 | 38 ft | 7 kts | 171° |
| 2026-05-05 10:29 | 22.29768 | 113.89753 | 38 ft | 7 kts | 162° |
| 2026-05-05 10:29 | 22.29714 | 113.89773 | 38 ft | 8 kts | 160° |
| 2026-05-05 10:29 | 22.29673 | 113.89789 | 38 ft | 5 kts | 160° |
| 2026-05-05 10:30 | 22.29641 | 113.89807 | 38 ft | 4 kts | 128° |
| 2026-05-05 10:30 | 22.29638 | 113.89841 | 38 ft | 5 kts | 77° |
| 2026-05-05 10:30 | 22.29657 | 113.89908 | 38 ft | 23 kts | 71° |
| 2026-05-05 10:30 | 22.29803 | 113.90363 | 38 ft | 101 kts | 71° |
| 2026-05-05 10:31 | 22.30112 | 113.91324 | 50 ft | 166 kts | 71° |
| 2026-05-05 10:31 | 22.30504 | 113.92545 | 645 ft | 176 kts | 71° |
| 2026-05-05 10:31 | 22.30915 | 113.93810 | 1446 ft | 182 kts | 71° |
| 2026-05-05 10:31 | 22.31335 | 113.95122 | 2001 ft | 194 kts | 71° |
| 2026-05-05 10:32 | 22.31793 | 113.96546 | 2516 ft | 209 kts | 71° |
| 2026-05-05 10:32 | 22.32286 | 113.98077 | 3060 ft | 224 kts | 71° |
| 2026-05-05 10:32 | 22.32815 | 113.99721 | 3679 ft | 238 kts | 71° |
| 2026-05-05 10:32 | 22.33375 | 114.01458 | 4312 ft | 252 kts | 71° |
| 2026-05-05 10:33 | 22.33845 | 114.03298 | 5042 ft | 260 kts | 83° |
| 2026-05-05 10:33 | 22.33726 | 114.05234 | 5855 ft | 265 kts | 106° |
| 2026-05-05 10:33 | 22.32829 | 114.06999 | 6557 ft | 273 kts | 130° |
| 2026-05-05 10:33 | 22.31331 | 114.08270 | 7287 ft | 279 kts | 153° |
| 2026-05-05 10:34 | 22.29480 | 114.08864 | 8033 ft | 282 kts | 173° |
| 2026-05-05 10:34 | 22.27507 | 114.08860 | 8828 ft | 284 kts | 182° |
| 2026-05-05 10:34 | 22.25510 | 114.08746 | 9639 ft | 288 kts | 181° |
| 2026-05-05 10:34 | 22.23494 | 114.08687 | 10362 ft | 295 kts | 181° |
| 2026-05-05 10:35 | 22.21366 | 114.08770 | 10865 ft | 313 kts | 172° |
| 2026-05-05 10:35 | 22.19188 | 114.09296 | 11353 ft | 330 kts | 161° |
| 2026-05-05 10:35 | 22.17019 | 114.10343 | 11807 ft | 346 kts | 149° |
| 2026-05-05 10:35 | 22.15103 | 114.11848 | 12076 ft | 363 kts | 139° |
| 2026-05-05 10:36 | 22.13370 | 114.13946 | 12428 ft | 383 kts | 126° |
| 2026-05-05 10:36 | 22.12023 | 114.16512 | 12777 ft | 404 kts | 117° |
| 2026-05-05 10:36 | 22.10797 | 114.19270 | 13497 ft | 413 kts | 116° |
| 2026-05-05 10:36 | 22.09540 | 114.22055 | 14335 ft | 419 kts | 117° |
| 2026-05-05 10:37 | 22.08081 | 114.24770 | 15184 ft | 424 kts | 127° |
| 2026-05-05 10:37 | 22.06158 | 114.27213 | 16026 ft | 427 kts | 138° |
| 2026-05-05 10:37 | 22.03865 | 114.29270 | 16882 ft | 430 kts | 146° |
| 2026-05-05 10:37 | 22.01501 | 114.31141 | 17697 ft | 435 kts | 147° |
| 2026-05-05 10:38 | 21.99045 | 114.33068 | 18519 ft | 441 kts | 147° |
| 2026-05-05 10:38 | 21.96564 | 114.35015 | 19331 ft | 446 kts | 147° |
| 2026-05-05 10:38 | 21.94063 | 114.36980 | 20106 ft | 451 kts | 147° |
| 2026-05-05 10:38 | 21.91500 | 114.38995 | 20866 ft | 457 kts | 147° |
| 2026-05-05 10:39 | 21.89236 | 114.40836 | 21528 ft | 462 kts | 142° |
| 2026-05-05 10:39 | 21.86986 | 114.43216 | 22226 ft | 471 kts | 133° |
| 2026-05-05 10:39 | 21.85017 | 114.46084 | 22921 ft | 479 kts | 123° |
| 2026-05-05 10:39 | 21.83479 | 114.49297 | 23541 ft | 488 kts | 113° |
| 2026-05-05 10:40 | 21.82412 | 114.52781 | 24194 ft | 496 kts | 105° |
| 2026-05-05 10:40 | 21.81519 | 114.56371 | 24868 ft | 502 kts | 105° |
| 2026-05-05 10:40 | 21.80609 | 114.60052 | 25515 ft | 508 kts | 105° |
| 2026-05-05 10:40 | 21.79689 | 114.63726 | 26198 ft | 513 kts | 105° |
| 2026-05-05 10:41 | 21.78770 | 114.67358 | 26791 ft | 520 kts | 106° |
| 2026-05-05 10:41 | 21.77821 | 114.71083 | 27352 ft | 527 kts | 106° |
| 2026-05-05 10:41 | 21.76831 | 114.74946 | 27917 ft | 534 kts | 106° |
| 2026-05-05 10:41 | 21.75849 | 114.78758 | 28544 ft | 539 kts | 106° |
| 2026-05-05 10:42 | 21.72940 | 114.86217 | 29799 ft | 543 kts | 123° |
| 2026-05-05 10:42 | 21.70822 | 114.89535 | 30706 ft | 538 kts | 129° |
| 2026-05-05 10:42 | 21.68596 | 114.92715 | 31694 ft | 532 kts | 130° |
| 2026-05-05 10:43 | 21.66364 | 114.95875 | 32570 ft | 528 kts | 130° |
| 2026-05-05 10:43 | 21.64168 | 114.98976 | 33345 ft | 525 kts | 130° |
| 2026-05-05 10:43 | 21.61953 | 115.02103 | 34087 ft | 524 kts | 130° |
| 2026-05-05 10:43 | 21.59741 | 115.05222 | 34823 ft | 522 kts | 130° |
| 2026-05-05 10:44 | 21.57538 | 115.08328 | 35597 ft | 519 kts | 130° |
| 2026-05-05 10:44 | 21.55349 | 115.11410 | 36281 ft | 516 kts | 130° |
| 2026-05-05 10:44 | 21.53191 | 115.14446 | 36799 ft | 516 kts | 130° |
| 2026-05-05 10:44 | 21.51014 | 115.17508 | 36938 ft | 520 kts | 130° |
| 2026-05-05 10:45 | 21.48823 | 115.20589 | 36941 ft | 518 kts | 130° |
| 2026-05-05 10:45 | 21.44462 | 115.26717 | 36946 ft | 516 kts | 130° |
| 2026-05-05 10:46 | 21.40109 | 115.32827 | 36956 ft | 516 kts | 130° |
| 2026-05-05 10:46 | 21.35744 | 115.38947 | 36955 ft | 516 kts | 130° |
| 2026-05-05 10:47 | 21.31382 | 115.45055 | 36960 ft | 516 kts | 130° |
| 2026-05-05 10:47 | 21.27028 | 115.51145 | 36958 ft | 515 kts | 130° |
| 2026-05-05 10:48 | 21.22681 | 115.57218 | 36963 ft | 515 kts | 130° |
| 2026-05-05 10:48 | 21.18323 | 115.63302 | 36966 ft | 515 kts | 130° |
| 2026-05-05 10:49 | 21.13960 | 115.69385 | 36953 ft | 514 kts | 130° |
| 2026-05-05 10:49 | 21.09585 | 115.75478 | 36951 ft | 515 kts | 130° |
| 2026-05-05 10:50 | 21.05238 | 115.81526 | 36952 ft | 514 kts | 130° |
| 2026-05-05 10:50 | 21.00886 | 115.87573 | 36951 ft | 514 kts | 130° |
| 2026-05-05 10:51 | 20.96536 | 115.93613 | 36948 ft | 515 kts | 130° |
| 2026-05-05 10:51 | 20.92172 | 115.99664 | 36949 ft | 514 kts | 130° |
| 2026-05-05 10:52 | 20.87773 | 116.05757 | 36950 ft | 515 kts | 130° |
| 2026-05-05 10:52 | 20.82836 | 116.11111 | 36936 ft | 506 kts | 147° |
| 2026-05-05 10:53 | 20.76969 | 116.15262 | 36933 ft | 504 kts | 151° |
| 2026-05-05 10:53 | 20.71059 | 116.19277 | 36928 ft | 501 kts | 151° |
| 2026-05-05 10:54 | 20.65186 | 116.23259 | 36930 ft | 501 kts | 151° |
| 2026-05-05 10:54 | 20.59309 | 116.27238 | 36931 ft | 502 kts | 151° |
| 2026-05-05 10:55 | 20.53421 | 116.31219 | 36931 ft | 501 kts | 151° |
| 2026-05-05 10:55 | 20.47499 | 116.35219 | 36930 ft | 501 kts | 151° |
| 2026-05-05 10:56 | 20.41637 | 116.39175 | 36934 ft | 500 kts | 151° |
| 2026-05-05 10:56 | 20.35752 | 116.43142 | 36936 ft | 500 kts | 151° |
| 2026-05-05 10:57 | 20.29847 | 116.47120 | 36930 ft | 500 kts | 151° |
| 2026-05-05 10:57 | 20.24001 | 116.51053 | 36928 ft | 499 kts | 151° |
| 2026-05-05 10:58 | 20.18118 | 116.55008 | 36928 ft | 501 kts | 151° |
| 2026-05-05 10:58 | 20.12229 | 116.58964 | 36925 ft | 499 kts | 151° |
| 2026-05-05 10:59 | 20.06347 | 116.62911 | 36926 ft | 499 kts | 150° |
| 2026-05-05 10:59 | 20.00549 | 116.66985 | 36905 ft | 500 kts | 143° |
| 2026-05-05 11:00 | 19.95593 | 116.72257 | 36908 ft | 505 kts | 135° |
| 2026-05-05 11:00 | 19.90888 | 116.77728 | 36907 ft | 503 kts | 135° |
| 2026-05-05 11:01 | 19.86166 | 116.83211 | 36905 ft | 504 kts | 135° |
| 2026-05-05 11:01 | 19.81444 | 116.88685 | 36905 ft | 504 kts | 135° |
| 2026-05-05 11:02 | 19.76722 | 116.94152 | 36906 ft | 504 kts | 135° |
| 2026-05-05 11:02 | 19.71992 | 116.99621 | 36910 ft | 503 kts | 135° |
| 2026-05-05 11:03 | 19.67267 | 117.05080 | 36909 ft | 502 kts | 135° |
| 2026-05-05 11:03 | 19.62547 | 117.10526 | 36911 ft | 502 kts | 135° |
| 2026-05-05 11:04 | 19.57807 | 117.15991 | 36910 ft | 501 kts | 135° |
| 2026-05-05 11:04 | 19.53112 | 117.21399 | 36913 ft | 500 kts | 135° |
| 2026-05-05 11:05 | 19.48410 | 117.26811 | 36908 ft | 501 kts | 135° |
| 2026-05-05 11:05 | 19.43689 | 117.32237 | 36909 ft | 500 kts | 134° |
| 2026-05-05 11:06 | 19.38986 | 117.37639 | 36909 ft | 500 kts | 135° |
| 2026-05-05 11:06 | 19.34261 | 117.43062 | 36907 ft | 499 kts | 135° |
| 2026-05-05 11:07 | 19.29564 | 117.48447 | 36906 ft | 498 kts | 135° |
| 2026-05-05 11:07 | 19.24867 | 117.53827 | 36902 ft | 498 kts | 135° |
| 2026-05-05 11:08 | 19.20193 | 117.59176 | 36907 ft | 498 kts | 135° |
| 2026-05-05 11:08 | 19.15475 | 117.64570 | 36906 ft | 499 kts | 135° |
| 2026-05-05 11:09 | 19.10766 | 117.69949 | 36896 ft | 497 kts | 135° |
| 2026-05-05 11:09 | 19.06087 | 117.75290 | 36890 ft | 497 kts | 135° |
| 2026-05-05 11:10 | 19.01356 | 117.80686 | 36891 ft | 497 kts | 135° |
| 2026-05-05 11:10 | 18.96662 | 117.86033 | 36889 ft | 497 kts | 135° |
| 2026-05-05 11:11 | 18.91967 | 117.91376 | 36888 ft | 497 kts | 135° |
| 2026-05-05 11:11 | 18.87283 | 117.96703 | 36887 ft | 496 kts | 135° |
| 2026-05-05 11:12 | 18.82602 | 118.02022 | 36884 ft | 496 kts | 135° |
| 2026-05-05 11:12 | 18.77886 | 118.07374 | 36884 ft | 497 kts | 135° |
| 2026-05-05 11:13 | 18.73206 | 118.12682 | 36883 ft | 498 kts | 135° |
| 2026-05-05 11:13 | 18.68468 | 118.18053 | 36882 ft | 496 kts | 135° |
| 2026-05-05 11:14 | 18.63765 | 118.23377 | 36885 ft | 496 kts | 135° |
| 2026-05-05 11:14 | 18.59088 | 118.28667 | 36883 ft | 495 kts | 135° |
| 2026-05-05 11:15 | 18.54400 | 118.33966 | 36881 ft | 495 kts | 135° |
| 2026-05-05 11:15 | 18.49668 | 118.39310 | 36879 ft | 495 kts | 135° |
| 2026-05-05 11:16 | 18.44972 | 118.44608 | 36879 ft | 495 kts | 135° |
| 2026-05-05 11:16 | 18.40288 | 118.49889 | 36878 ft | 494 kts | 135° |
| 2026-05-05 11:17 | 18.35600 | 118.55168 | 36878 ft | 495 kts | 135° |
| 2026-05-05 11:17 | 18.30890 | 118.60470 | 36880 ft | 494 kts | 135° |
| 2026-05-05 11:18 | 18.26188 | 118.65757 | 36879 ft | 494 kts | 135° |
| 2026-05-05 11:18 | 18.21886 | 118.70589 | 36871 ft | 493 kts | 135° |
| 2026-05-05 11:19 | 18.17240 | 118.75805 | 36871 ft | 493 kts | 135° |
| 2026-05-05 11:19 | 18.12566 | 118.81049 | 36869 ft | 494 kts | 135° |
| 2026-05-05 11:20 | 18.07856 | 118.86325 | 36868 ft | 493 kts | 135° |
| 2026-05-05 11:20 | 18.03183 | 118.91559 | 36872 ft | 492 kts | 135° |
| 2026-05-05 11:21 | 17.98163 | 118.96359 | 36866 ft | 486 kts | 149° |
| 2026-05-05 11:21 | 17.92310 | 118.99930 | 36868 ft | 485 kts | 154° |
| 2026-05-05 11:22 | 17.86380 | 119.03375 | 36865 ft | 486 kts | 154° |
| 2026-05-05 11:22 | 17.80436 | 119.06823 | 36870 ft | 486 kts | 154° |
| 2026-05-05 11:23 | 17.74536 | 119.10242 | 36875 ft | 486 kts | 154° |
| 2026-05-05 11:23 | 17.68621 | 119.13665 | 36879 ft | 486 kts | 154° |
| 2026-05-05 11:24 | 17.62691 | 119.17095 | 36879 ft | 485 kts | 154° |
| 2026-05-05 11:24 | 17.56801 | 119.20499 | 36878 ft | 486 kts | 153° |
| 2026-05-05 11:25 | 17.50868 | 119.23923 | 36879 ft | 485 kts | 153° |
| 2026-05-05 11:25 | 17.44935 | 119.27346 | 36881 ft | 486 kts | 153° |
| 2026-05-05 11:26 | 17.38997 | 119.30770 | 36877 ft | 486 kts | 153° |
| 2026-05-05 11:26 | 17.33085 | 119.34176 | 36877 ft | 486 kts | 153° |
| 2026-05-05 11:27 | 17.27137 | 119.37599 | 36877 ft | 486 kts | 153° |
| 2026-05-05 11:27 | 17.21221 | 119.41003 | 36878 ft | 486 kts | 153° |
| 2026-05-05 11:28 | 17.15252 | 119.44434 | 36878 ft | 485 kts | 153° |
| 2026-05-05 11:28 | 17.09355 | 119.47820 | 36878 ft | 487 kts | 153° |
| 2026-05-05 11:29 | 17.03410 | 119.51233 | 36873 ft | 485 kts | 153° |
| 2026-05-05 11:29 | 16.97515 | 119.54614 | 36870 ft | 485 kts | 153° |
| 2026-05-05 11:30 | 16.91607 | 119.57999 | 36873 ft | 484 kts | 153° |
| 2026-05-05 11:30 | 16.85662 | 119.61404 | 36872 ft | 484 kts | 153° |
| 2026-05-05 11:31 | 16.80141 | 119.64564 | 36872 ft | 484 kts | 153° |
| 2026-05-05 11:31 | 16.74299 | 119.67905 | 36867 ft | 484 kts | 154° |
| 2026-05-05 11:32 | 16.68411 | 119.71270 | 36870 ft | 483 kts | 153° |
| 2026-05-05 11:32 | 16.62501 | 119.74646 | 36827 ft | 478 kts | 153° |
| 2026-05-05 11:32 | 16.59592 | 119.76306 | 36524 ft | 479 kts | 154° |
| 2026-05-05 11:33 | 16.56672 | 119.77972 | 36063 ft | 483 kts | 154° |
| 2026-05-05 11:33 | 16.53710 | 119.79662 | 35706 ft | 484 kts | 153° |
| 2026-05-05 11:33 | 16.50761 | 119.81342 | 35510 ft | 483 kts | 153° |
| 2026-05-05 11:33 | 16.47832 | 119.83012 | 35325 ft | 481 kts | 154° |
| 2026-05-05 11:34 | 16.44853 | 119.84710 | 35067 ft | 481 kts | 153° |
| 2026-05-05 11:34 | 16.41928 | 119.86375 | 34784 ft | 482 kts | 153° |
| 2026-05-05 11:34 | 16.38989 | 119.88049 | 34460 ft | 484 kts | 153° |
| 2026-05-05 11:34 | 16.36017 | 119.89740 | 34136 ft | 485 kts | 153° |
| 2026-05-05 11:35 | 16.33048 | 119.91430 | 33835 ft | 485 kts | 153° |
| 2026-05-05 11:35 | 16.30100 | 119.93107 | 33101 ft | 483 kts | 153° |
| 2026-05-05 11:35 | 16.27126 | 119.94798 | 32206 ft | 484 kts | 153° |
| 2026-05-05 11:35 | 16.24142 | 119.96493 | 31333 ft | 485 kts | 153° |
| 2026-05-05 11:36 | 16.21171 | 119.98182 | 30497 ft | 485 kts | 153° |
| 2026-05-05 11:36 | 16.18255 | 119.99838 | 30004 ft | 477 kts | 153° |
| 2026-05-05 11:36 | 16.15367 | 120.01479 | 29525 ft | 470 kts | 153° |
| 2026-05-05 11:36 | 16.12510 | 120.03101 | 29002 ft | 464 kts | 153° |
| 2026-05-05 11:37 | 16.09683 | 120.04706 | 28478 ft | 458 kts | 153° |
| 2026-05-05 11:37 | 16.06888 | 120.06292 | 27951 ft | 453 kts | 153° |
| 2026-05-05 11:37 | 16.04161 | 120.07838 | 27428 ft | 448 kts | 153° |
| 2026-05-05 11:37 | 16.01404 | 120.09399 | 26897 ft | 455 kts | 153° |
| 2026-05-05 11:38 | 15.98601 | 120.10987 | 26338 ft | 460 kts | 153° |
| 2026-05-05 11:38 | 15.95771 | 120.12590 | 25775 ft | 456 kts | 153° |
| 2026-05-05 11:38 | 15.92998 | 120.14161 | 25219 ft | 451 kts | 152° |
| 2026-05-05 11:38 | 15.90264 | 120.15709 | 24672 ft | 446 kts | 153° |
| 2026-05-05 11:39 | 15.87550 | 120.17245 | 24128 ft | 441 kts | 152° |
| 2026-05-05 11:39 | 15.84928 | 120.18729 | 23592 ft | 437 kts | 152° |
| 2026-05-05 11:39 | 15.82230 | 120.20256 | 23042 ft | 432 kts | 152° |
| 2026-05-05 11:39 | 15.79624 | 120.21729 | 22500 ft | 428 kts | 152° |
| 2026-05-05 11:40 | 15.77005 | 120.23209 | 21949 ft | 424 kts | 152° |
| 2026-05-05 11:40 | 15.74429 | 120.24665 | 21404 ft | 421 kts | 152° |
| 2026-05-05 11:40 | 15.71844 | 120.26126 | 20851 ft | 417 kts | 152° |
| 2026-05-05 11:40 | 15.69306 | 120.27559 | 20305 ft | 414 kts | 152° |
| 2026-05-05 11:41 | 15.66790 | 120.28979 | 19757 ft | 410 kts | 152° |
| 2026-05-05 11:41 | 15.64286 | 120.30394 | 19214 ft | 407 kts | 152° |
| 2026-05-05 11:41 | 15.61808 | 120.31792 | 18667 ft | 404 kts | 151° |
| 2026-05-05 11:41 | 15.59335 | 120.33187 | 18123 ft | 400 kts | 151° |
| 2026-05-05 11:42 | 15.56878 | 120.34573 | 17567 ft | 397 kts | 151° |
| 2026-05-05 11:42 | 15.54451 | 120.35941 | 17029 ft | 394 kts | 151° |
| 2026-05-05 11:42 | 15.52065 | 120.37286 | 16578 ft | 388 kts | 151° |
| 2026-05-05 11:42 | 15.49719 | 120.38608 | 16439 ft | 374 kts | 151° |
| 2026-05-05 11:43 | 15.47459 | 120.39881 | 16326 ft | 359 kts | 151° |
| 2026-05-05 11:43 | 15.45285 | 120.41106 | 16190 ft | 346 kts | 151° |
| 2026-05-05 11:43 | 15.43211 | 120.42273 | 16054 ft | 334 kts | 151° |
| 2026-05-05 11:43 | 15.41149 | 120.43327 | 15899 ft | 323 kts | 159° |
| 2026-05-05 11:44 | 15.39022 | 120.44069 | 15678 ft | 320 kts | 162° |
| 2026-05-05 11:44 | 15.36879 | 120.44743 | 15401 ft | 321 kts | 162° |
| 2026-05-05 11:44 | 15.34742 | 120.45412 | 15130 ft | 319 kts | 162° |
| 2026-05-05 11:44 | 15.32626 | 120.46081 | 14880 ft | 317 kts | 162° |
| 2026-05-05 11:45 | 15.30506 | 120.46754 | 14619 ft | 317 kts | 162° |
| 2026-05-05 11:45 | 15.28393 | 120.47425 | 14347 ft | 316 kts | 162° |
| 2026-05-05 11:45 | 15.26305 | 120.48088 | 14104 ft | 315 kts | 162° |
| 2026-05-05 11:45 | 15.24179 | 120.48762 | 13871 ft | 313 kts | 162° |
| 2026-05-05 11:46 | 15.22083 | 120.49429 | 13620 ft | 312 kts | 162° |
| 2026-05-05 11:46 | 15.20033 | 120.50079 | 13375 ft | 310 kts | 161° |
| 2026-05-05 11:46 | 15.17963 | 120.50736 | 13128 ft | 309 kts | 161° |
| 2026-05-05 11:46 | 15.15899 | 120.51391 | 12880 ft | 308 kts | 161° |
| 2026-05-05 11:47 | 15.13835 | 120.52046 | 12665 ft | 306 kts | 161° |
| 2026-05-05 11:47 | 15.11790 | 120.52695 | 12468 ft | 305 kts | 161° |
| 2026-05-05 11:47 | 15.09771 | 120.53335 | 12241 ft | 305 kts | 161° |
| 2026-05-05 11:47 | 15.07740 | 120.53979 | 12011 ft | 304 kts | 161° |
| 2026-05-05 11:48 | 15.03702 | 120.55258 | 11537 ft | 301 kts | 161° |
| 2026-05-05 11:48 | 15.01692 | 120.55896 | 11274 ft | 299 kts | 161° |
| 2026-05-05 11:48 | 14.99697 | 120.56529 | 11028 ft | 298 kts | 161° |
| 2026-05-05 11:49 | 14.97725 | 120.57153 | 10797 ft | 297 kts | 161° |
| 2026-05-05 11:49 | 14.95756 | 120.57775 | 10567 ft | 296 kts | 160° |
| 2026-05-05 11:49 | 14.93779 | 120.58401 | 10335 ft | 293 kts | 160° |
| 2026-05-05 11:49 | 14.91816 | 120.59022 | 10087 ft | 288 kts | 160° |
| 2026-05-05 11:50 | 14.89937 | 120.59615 | 9861 ft | 282 kts | 160° |
| 2026-05-05 11:50 | 14.88049 | 120.60213 | 9623 ft | 279 kts | 160° |
| 2026-05-05 11:50 | 14.86193 | 120.60801 | 9387 ft | 278 kts | 160° |
| 2026-05-05 11:50 | 14.84339 | 120.61387 | 9159 ft | 278 kts | 160° |
| 2026-05-05 11:51 | 14.82483 | 120.61974 | 8925 ft | 277 kts | 160° |
| 2026-05-05 11:51 | 14.80624 | 120.62561 | 8720 ft | 276 kts | 160° |
| 2026-05-05 11:51 | 14.78833 | 120.63128 | 8572 ft | 276 kts | 161° |
| 2026-05-05 11:51 | 14.77002 | 120.63706 | 8387 ft | 274 kts | 161° |
| 2026-05-05 11:52 | 14.75177 | 120.64284 | 8192 ft | 271 kts | 162° |
| 2026-05-05 11:52 | 14.73375 | 120.64853 | 7972 ft | 269 kts | 163° |
| 2026-05-05 11:52 | 14.71600 | 120.65412 | 7698 ft | 266 kts | 163° |
| 2026-05-05 11:52 | 14.69807 | 120.65978 | 7462 ft | 265 kts | 163° |
| 2026-05-05 11:53 | 14.68059 | 120.66531 | 7244 ft | 265 kts | 163° |
| 2026-05-05 11:53 | 14.66271 | 120.67095 | 7024 ft | 264 kts | 163° |
| 2026-05-05 11:53 | 14.64515 | 120.67648 | 6806 ft | 263 kts | 163° |
| 2026-05-05 11:53 | 14.62766 | 120.68200 | 6590 ft | 262 kts | 163° |
| 2026-05-05 11:54 | 14.61050 | 120.68906 | 6368 ft | 260 kts | 152° |
| 2026-05-05 11:54 | 14.59495 | 120.69795 | 6142 ft | 255 kts | 150° |
| 2026-05-05 11:54 | 14.57960 | 120.70704 | 5875 ft | 249 kts | 150° |
| 2026-05-05 11:54 | 14.56466 | 120.71584 | 5647 ft | 241 kts | 149° |
| 2026-05-05 11:55 | 14.55086 | 120.72394 | 5445 ft | 234 kts | 149° |
| 2026-05-05 11:55 | 14.53672 | 120.73222 | 5255 ft | 227 kts | 149° |
| 2026-05-05 11:55 | 14.52318 | 120.74014 | 5113 ft | 220 kts | 149° |
| 2026-05-05 11:55 | 14.51010 | 120.74781 | 4952 ft | 215 kts | 149° |
| 2026-05-05 11:56 | 14.49712 | 120.75552 | 4838 ft | 212 kts | 148° |
| 2026-05-05 11:56 | 14.48417 | 120.76321 | 4728 ft | 212 kts | 148° |
| 2026-05-05 11:56 | 14.47147 | 120.77073 | 4613 ft | 212 kts | 148° |
| 2026-05-05 11:56 | 14.45858 | 120.77835 | 4496 ft | 211 kts | 148° |
| 2026-05-05 11:57 | 14.44591 | 120.78586 | 4381 ft | 210 kts | 148° |
| 2026-05-05 11:57 | 14.43311 | 120.79343 | 4266 ft | 210 kts | 148° |
| 2026-05-05 11:57 | 14.42031 | 120.80102 | 4160 ft | 209 kts | 148° |
| 2026-05-05 11:57 | 14.40905 | 120.81038 | 3942 ft | 210 kts | 123° |
| 2026-05-05 11:58 | 14.40422 | 120.82441 | 3671 ft | 207 kts | 96° |
| 2026-05-05 11:58 | 14.40677 | 120.83874 | 3406 ft | 205 kts | 65° |
| 2026-05-05 11:58 | 14.41399 | 120.85140 | 3170 ft | 203 kts | 60° |
| 2026-05-05 11:58 | 14.42123 | 120.86360 | 2928 ft | 198 kts | 60° |
| 2026-05-05 11:59 | 14.42819 | 120.87580 | 2690 ft | 192 kts | 62° |
| 2026-05-05 11:59 | 14.43478 | 120.88757 | 2461 ft | 187 kts | 62° |
| 2026-05-05 11:59 | 14.44118 | 120.89905 | 2243 ft | 182 kts | 62° |
| 2026-05-05 11:59 | 14.44745 | 120.91025 | 2025 ft | 176 kts | 62° |
| 2026-05-05 12:00 | 14.45333 | 120.92073 | 1816 ft | 162 kts | 62° |
| 2026-05-05 12:00 | 14.45877 | 120.93047 | 1623 ft | 150 kts | 62° |
| 2026-05-05 12:00 | 14.46392 | 120.93967 | 1430 ft | 144 kts | 62° |
| 2026-05-05 12:00 | 14.46887 | 120.94855 | 1243 ft | 143 kts | 62° |
| 2026-05-05 12:01 | 14.47382 | 120.95740 | 1060 ft | 141 kts | 62° |
| 2026-05-05 12:01 | 14.47880 | 120.96618 | 862 ft | 141 kts | 62° |
| 2026-05-05 12:01 | 14.48366 | 120.97482 | 660 ft | 141 kts | 63° |
| 2026-05-05 12:01 | 14.48858 | 120.98378 | 478 ft | 141 kts | 62° |
| 2026-05-05 12:02 | 14.49360 | 120.99265 | 299 ft | 141 kts | 62° |
| 2026-05-05 12:02 | 14.49864 | 121.00150 | 125 ft | 142 kts | 63° |
| 2026-05-05 12:02 | 14.50297 | 121.00943 | 88 ft | 121 kts | 60° |
| 2026-05-05 12:02 | 14.50658 | 121.01585 | 88 ft | 85 kts | 60° |
| 2026-05-05 12:03 | 14.50881 | 121.01987 | 88 ft | 41 kts | 60° |
| 2026-05-05 12:03 | 14.50976 | 121.02150 | 88 ft | 18 kts | 48° |
| 2026-05-05 12:03 | 14.51065 | 121.02235 | 88 ft | 15 kts | 42° |
| 2026-05-05 12:03 | 14.51119 | 121.02286 | 88 ft | 6 kts | 43° |
| 2026-05-05 12:04 | 14.51156 | 121.02300 | 88 ft | 5 kts | 353° |
| 2026-05-05 12:04 | 14.51185 | 121.02276 | 88 ft | 5 kts | 286° |
| 2026-05-05 12:04 | 14.51175 | 121.02235 | 88 ft | 6 kts | 246° |
| 2026-05-05 12:04 | 14.51154 | 121.02193 | 88 ft | 6 kts | 241° |
| 2026-05-05 12:05 | 14.51130 | 121.02148 | 88 ft | 7 kts | 240° |
| 2026-05-05 12:05 | 14.51103 | 121.02098 | 88 ft | 8 kts | 240° |
| 2026-05-05 12:05 | 14.51072 | 121.02045 | 88 ft | 8 kts | 239° |
| 2026-05-05 12:05 | 14.51066 | 121.02002 | 88 ft | 6 kts | 293° |
| 2026-05-05 12:06 | 14.51098 | 121.01960 | 88 ft | 9 kts | 312° |
| 2026-05-05 12:06 | 14.51150 | 121.01907 | 88 ft | 10 kts | 315° |
| 2026-05-05 12:06 | 14.51203 | 121.01851 | 88 ft | 10 kts | 315° |
| 2026-05-05 12:06 | 14.51257 | 121.01796 | 88 ft | 11 kts | 315° |
| 2026-05-05 12:07 | 14.51312 | 121.01739 | 88 ft | 11 kts | 315° |
| 2026-05-05 12:07 | 14.51367 | 121.01681 | 88 ft | 11 kts | 315° |
| 2026-05-05 12:07 | 14.51423 | 121.01623 | 88 ft | 11 kts | 315° |
| 2026-05-05 12:07 | 14.51480 | 121.01565 | 88 ft | 11 kts | 314° |
| 2026-05-05 12:08 | 14.51536 | 121.01506 | 88 ft | 11 kts | 315° |
| 2026-05-05 12:08 | 14.51593 | 121.01448 | 88 ft | 11 kts | 315° |
| 2026-05-05 12:08 | 14.51651 | 121.01389 | 88 ft | 11 kts | 315° |
| 2026-05-05 12:08 | 14.51702 | 121.01335 | 88 ft | 7 kts | 314° |
| 2026-05-05 12:09 | 14.51732 | 121.01314 | 88 ft | 4 kts | 355° |
| 2026-05-05 12:09 | 14.51761 | 121.01330 | 88 ft | 5 kts | 39° |
| 2026-05-05 12:09 | 14.51786 | 121.01352 | 88 ft | 2 kts | 45° |
| 2026-05-05 12:09 | 14.51793 | 121.01360 | 88 ft | 1 kts | 45° |